Time;durP1;ratioP1;P1;durP2;ratioP2;P2;SDS_P1;SDS_P2;PMS_P1;PMS_P2;Temp;Humidity;BMP_temperature;BMP_pressure;BME280_temperature;BME280_humidity;BME280_pressure;Samples;Min_cycle;Max_cycle;Signal;HPM_P1;HPM_P2
2021/07/19 00:00:16;;;;;;;1.48;1.27;;;23.70;68.10;;;;;;5002841;28;20894;-62
2021/07/19 00:02:42;;;;;;;2.10;1.27;;;23.70;68.00;;;;;;5002194;28;20389;-62
2021/07/19 00:05:10;;;;;;;1.40;1.10;;;23.70;68.00;;;;;;5003329;28;20391;-62
2021/07/19 00:07:36;;;;;;;1.90;1.25;;;23.60;68.00;;;;;;5002503;28;20726;-64
2021/07/19 00:10:06;;;;;;;1.80;1.15;;;23.70;68.00;;;;;;5003002;28;20488;-65
2021/07/19 00:12:32;;;;;;;1.70;1.30;;;23.60;67.90;;;;;;5003238;28;20405;-65
2021/07/19 00:14:58;;;;;;;1.50;1.20;;;23.70;68.00;;;;;;5003165;28;20435;-61
2021/07/19 00:17:24;;;;;;;1.80;1.40;;;23.60;67.90;;;;;;5002587;28;21102;-62
2021/07/19 00:19:50;;;;;;;1.70;1.08;;;23.60;67.90;;;;;;5003343;28;20396;-61
2021/07/19 00:22:20;;;;;;;1.75;1.20;;;23.60;68.50;;;;;;5001269;28;21447;-62
2021/07/19 00:24:46;;;;;;;2.60;1.10;;;23.60;67.90;;;;;;5002649;28;20478;-61
2021/07/19 00:27:12;;;;;;;1.58;1.00;;;23.60;67.80;;;;;;5003448;28;20467;-62
2021/07/19 00:29:38;;;;;;;1.50;1.20;;;23.60;67.80;;;;;;5006399;28;20483;-61
2021/07/19 00:32:04;;;;;;;1.60;1.15;;;23.60;67.90;;;;;;5006383;28;20427;-62
2021/07/19 00:34:30;;;;;;;1.75;1.13;;;23.60;67.80;;;;;;5006180;28;20397;-62
2021/07/19 00:36:57;;;;;;;1.40;1.05;;;23.60;67.90;;;;;;5006696;28;20464;-62
2021/07/19 00:39:24;;;;;;;1.65;1.25;;;23.60;67.80;;;;;;5005935;28;20431;-62
2021/07/19 00:41:51;;;;;;;1.67;1.10;;;23.60;68.40;;;;;;5006573;28;20489;-62
2021/07/19 00:44:20;;;;;;;1.27;1.00;;;23.60;67.80;;;;;;5006033;28;20742;-62
2021/07/19 00:46:47;;;;;;;1.83;1.20;;;23.60;67.80;;;;;;5004967;28;20393;-61
2021/07/19 00:49:13;;;;;;;1.60;1.10;;;23.60;67.80;;;;;;5006236;28;21252;-61
2021/07/19 00:51:41;;;;;;;1.90;1.20;;;23.60;67.80;;;;;;5021278;28;20495;-62
2021/07/19 00:54:13;;;;;;;1.60;1.20;;;23.60;67.80;;;;;;5006648;28;20412;-62
2021/07/19 00:56:42;;;;;;;1.50;1.00;;;23.60;67.80;;;;;;5006651;28;20385;-61
2021/07/19 00:59:09;;;;;;;1.40;1.10;;;23.60;67.80;;;;;;5006188;28;20420;-62
2021/07/19 01:01:39;;;;;;;1.33;0.95;;;23.60;67.70;;;;;;5005538;28;20396;-62
2021/07/19 01:04:08;;;;;;;1.42;1.00;;;23.60;67.80;;;;;;5006091;28;20487;-62
2021/07/19 01:06:34;;;;;;;2.13;1.23;;;23.60;67.70;;;;;;5006181;28;20427;-62
2021/07/19 01:09:03;;;;;;;2.00;1.20;;;23.60;67.70;;;;;;5006272;28;20424;-62
2021/07/19 01:11:29;;;;;;;1.50;1.20;;;23.60;67.70;;;;;;5005941;28;20428;-62
2021/07/19 01:13:55;;;;;;;1.37;1.10;;;23.60;67.70;;;;;;5006070;28;20680;-62
2021/07/19 01:16:21;;;;;;;1.48;1.10;;;23.60;67.70;;;;;;5004570;28;20760;-61
2021/07/19 01:18:47;;;;;;;1.55;1.10;;;23.60;67.70;;;;;;5005594;28;20475;-61
2021/07/19 01:21:21;;;;;;;1.45;1.08;;;23.60;67.70;;;;;;5004418;28;20400;-61
2021/07/19 01:24:10;;;;;;;1.97;1.10;;;23.60;67.70;;;;;;5005225;28;20445;-62
2021/07/19 01:27:00;;;;;;;1.85;1.10;;;23.60;67.60;;;;;;5004271;28;20400;-63
2021/07/19 01:29:26;;;;;;;1.60;1.10;;;23.60;67.70;;;;;;5004400;28;20406;-63
2021/07/19 01:31:53;;;;;;;1.55;1.20;;;23.60;67.60;;;;;;5003989;28;20397;-61
2021/07/19 01:34:23;;;;;;;1.58;1.20;;;23.60;67.70;;;;;;5005626;28;20749;-62
2021/07/19 01:36:58;;;;;;;1.50;1.20;;;23.50;67.60;;;;;;5004567;28;20389;-63
2021/07/19 01:39:26;;;;;;;1.80;1.40;;;23.60;67.60;;;;;;5003241;28;20941;-62
2021/07/19 01:41:53;;;;;;;1.73;1.20;;;23.50;67.60;;;;;;5005338;28;20848;-65
2021/07/19 01:44:20;;;;;;;1.30;1.10;;;23.50;67.60;;;;;;5005763;28;20777;-62
2021/07/19 01:46:48;;;;;;;1.93;1.20;;;23.50;67.60;;;;;;5004128;28;20813;-62
2021/07/19 01:49:14;;;;;;;1.50;1.10;;;23.50;67.60;;;;;;5004527;28;20901;-65
2021/07/19 01:51:40;;;;;;;1.40;1.10;;;23.50;67.60;;;;;;5004763;28;20416;-62
2021/07/19 01:54:08;;;;;;;1.40;1.00;;;23.50;67.50;;;;;;5003648;28;20397;-63
2021/07/19 01:56:34;;;;;;;1.63;1.20;;;23.50;67.60;;;;;;5003596;28;20429;-63
2021/07/19 01:59:00;;;;;;;1.70;1.10;;;23.60;67.60;;;;;;5020265;28;20547;-61
2021/07/19 02:01:27;;;;;;;1.40;1.15;;;23.50;67.50;;;;;;5003149;28;20393;-62
2021/07/19 02:03:54;;;;;;;1.70;1.10;;;23.50;67.50;;;;;;5020167;28;20397;-62
2021/07/19 02:06:20;;;;;;;1.50;1.20;;;23.50;67.50;;;;;;5005341;28;20919;-63
2021/07/19 02:08:51;;;;;;;1.50;1.10;;;23.50;67.50;;;;;;5005156;28;20393;-62
2021/07/19 02:11:23;;;;;;;1.48;1.00;;;23.50;68.00;;;;;;5004064;28;20396;-61
2021/07/19 02:13:49;;;;;;;1.52;1.13;;;23.50;68.10;;;;;;5004498;28;20399;-63
2021/07/19 02:16:16;;;;;;;1.65;1.17;;;23.50;67.50;;;;;;5004646;28;20408;-62
2021/07/19 02:18:45;;;;;;;1.35;1.00;;;23.50;67.50;;;;;;5004303;28;20421;-61
2021/07/19 02:21:11;;;;;;;1.27;1.00;;;23.50;67.50;;;;;;5004937;28;20385;-62
2021/07/19 02:23:39;;;;;;;1.50;1.00;;;23.50;67.40;;;;;;5002626;28;20436;-62
2021/07/19 02:26:07;;;;;;;1.48;1.05;;;23.50;67.50;;;;;;5003255;28;20965;-61
2021/07/19 02:28:34;;;;;;;1.30;1.10;;;23.50;67.40;;;;;;5004567;28;20393;-61
2021/07/19 02:31:03;;;;;;;1.60;1.10;;;23.50;67.50;;;;;;5004480;28;20579;-62
2021/07/19 02:33:30;;;;;;;1.55;1.10;;;23.50;67.40;;;;;;5002489;28;20881;-63
2021/07/19 02:35:56;;;;;;;2.10;1.10;;;23.50;67.40;;;;;;5003828;28;20393;-66
2021/07/19 02:38:23;;;;;;;1.80;1.30;;;23.50;67.40;;;;;;5002928;28;20430;-61
2021/07/19 02:40:51;;;;;;;1.55;1.20;;;23.50;67.40;;;;;;5002868;28;20929;-62
2021/07/19 02:43:20;;;;;;;1.40;1.10;;;23.50;67.40;;;;;;5003249;28;20410;-62
2021/07/19 02:45:50;;;;;;;1.60;1.20;;;23.50;67.40;;;;;;5003908;28;20427;-64
2021/07/19 02:48:16;;;;;;;1.80;1.10;;;23.50;67.40;;;;;;5004507;28;20408;-62
2021/07/19 02:50:43;;;;;;;1.83;1.20;;;23.50;67.40;;;;;;5003915;28;20395;-62
2021/07/19 02:53:13;;;;;;;1.45;1.08;;;23.50;67.40;;;;;;5003946;28;20499;-63
2021/07/19 02:55:40;;;;;;;1.90;1.20;;;23.50;67.30;;;;;;5002315;28;20393;-62
2021/07/19 02:58:07;;;;;;;1.60;1.30;;;23.50;67.30;;;;;;5003774;28;20794;-62
2021/07/19 03:00:35;;;;;;;1.40;1.20;;;23.50;67.30;;;;;;5003941;28;20404;-62
2021/07/19 03:03:03;;;;;;;1.33;1.02;;;23.50;67.30;;;;;;5003650;28;20391;-65
2021/07/19 03:05:37;;;;;;;1.50;1.20;;;23.50;67.30;;;;;;5003289;28;20892;-62
2021/07/19 03:08:05;;;;;;;1.45;1.13;;;23.40;67.30;;;;;;5002712;28;20785;-61
2021/07/19 03:10:34;;;;;;;1.40;1.10;;;23.50;67.30;;;;;;5003714;28;20407;-65
2021/07/19 03:13:13;;;;;;;1.60;1.30;;;23.40;67.40;;;;;;5002416;28;20416;-62
2021/07/19 03:15:42;;;;;;;2.70;1.50;;;23.50;68.70;;;;;;5001667;28;20392;-63
2021/07/19 03:18:10;;;;;;;2.13;1.93;;;23.50;69.40;;;;;;5001752;28;20464;-62
2021/07/19 03:20:38;;;;;;;2.00;1.50;;;23.60;69.00;;;;;;5002233;28;20404;-63
2021/07/19 03:23:06;;;;;;;2.42;1.60;;;23.60;69.00;;;;;;5003102;28;20400;-65
2021/07/19 03:25:33;;;;;;;3.28;1.70;;;23.60;70.00;;;;;;5003018;28;20872;-64
2021/07/19 03:27:58;;;;;;;2.78;1.40;;;23.70;70.40;;;;;;5002183;28;20415;-64
2021/07/19 03:30:25;;;;;;;3.33;1.60;;;23.70;71.00;;;;;;5001683;28;20389;-64
2021/07/19 03:32:51;;;;;;;2.97;1.67;;;23.80;70.90;;;;;;5003142;28;20397;-64
2021/07/19 03:35:24;;;;;;;2.70;1.40;;;23.80;70.80;;;;;;5003226;28;20547;-66
2021/07/19 03:37:51;;;;;;;2.47;1.55;;;23.80;70.70;;;;;;5002770;28;20523;-66
2021/07/19 03:40:22;;;;;;;3.90;1.60;;;23.90;71.40;;;;;;5003576;28;20905;-65
2021/07/19 03:42:49;;;;;;;2.70;1.63;;;23.90;71.40;;;;;;5001916;28;20809;-66
2021/07/19 03:45:16;;;;;;;5.17;1.77;;;23.90;70.90;;;;;;5002059;28;20385;-64
2021/07/19 03:47:43;;;;;;;2.70;1.92;;;24.00;71.70;;;;;;5002389;28;20911;-65
2021/07/19 03:50:10;;;;;;;4.90;1.70;;;24.00;71.90;;;;;;5002943;28;20393;-65
2021/07/19 03:52:40;;;;;;;3.58;1.60;;;24.00;71.70;;;;;;5003166;28;20393;-66
2021/07/19 03:55:08;;;;;;;4.13;1.60;;;24.00;71.70;;;;;;5002864;28;20425;-65
2021/07/19 03:57:36;;;;;;;3.28;1.60;;;23.90;70.80;;;;;;5002894;28;20428;-68
2021/07/19 04:00:07;;;;;;;4.97;2.10;;;24.00;70.50;;;;;;5002972;28;20401;-64
2021/07/19 04:02:35;;;;;;;6.10;1.83;;;23.90;70.00;;;;;;5001185;28;20930;-65
2021/07/19 04:05:06;;;;;;;3.05;1.60;;;24.00;69.70;;;;;;5002795;28;21013;-66
2021/07/19 04:07:36;;;;;;;2.50;1.60;;;23.90;69.50;;;;;;5002426;28;20463;-64
2021/07/19 04:10:09;;;;;;;4.95;2.30;;;23.90;69.20;;;;;;5002522;28;20796;-64
2021/07/19 04:12:36;;;;;;;7.13;2.50;;;23.80;68.70;;;;;;5003215;28;20447;-64
2021/07/19 04:15:04;;;;;;;6.85;2.97;;;23.80;68.60;;;;;;5002998;28;20442;-64
2021/07/19 04:17:31;;;;;;;4.95;2.70;;;23.80;68.40;;;;;;5002510;28;20384;-65
2021/07/19 04:19:57;;;;;;;10.23;3.05;;;23.70;68.20;;;;;;5002189;28;20727;-64
2021/07/19 04:22:24;;;;;;;5.85;2.45;;;23.70;67.90;;;;;;5002492;28;20876;-64
2021/07/19 04:24:50;;;;;;;4.25;2.55;;;23.70;67.70;;;;;;5002697;28;20397;-64
2021/07/19 04:27:17;;;;;;;4.93;2.55;;;23.70;67.70;;;;;;5002484;28;20404;-64
2021/07/19 04:29:51;;;;;;;3.80;2.20;;;23.70;67.60;;;;;;5001893;28;20770;-64
2021/07/19 04:32:21;;;;;;;3.00;2.20;;;23.60;67.50;;;;;;5001977;28;20492;-66
2021/07/19 04:34:48;;;;;;;3.35;2.05;;;23.60;67.40;;;;;;5002400;28;20397;-65
2021/07/19 04:37:14;;;;;;;3.35;2.15;;;23.60;67.30;;;;;;5002089;28;20389;-65
2021/07/19 04:39:41;;;;;;;3.65;2.20;;;23.60;67.20;;;;;;5001510;28;20420;-67
2021/07/19 04:42:07;;;;;;;3.78;2.10;;;23.60;67.10;;;;;;5001156;28;20393;-64
2021/07/19 04:44:34;;;;;;;3.70;1.77;;;23.60;67.10;;;;;;5002330;28;20393;-64
2021/07/19 04:46:59;;;;;;;3.38;1.98;;;23.60;67.00;;;;;;5002701;28;20458;-66
2021/07/19 04:49:27;;;;;;;2.97;2.10;;;23.60;67.00;;;;;;5002343;28;20397;-66
2021/07/19 04:51:53;;;;;;;3.50;1.87;;;23.60;67.00;;;;;;5001756;28;20510;-65
2021/07/19 04:54:28;;;;;;;3.17;1.98;;;23.60;67.00;;;;;;5001206;28;20385;-64
2021/07/19 04:56:58;;;;;;;2.35;1.80;;;23.60;67.00;;;;;;5002658;28;20836;-64
2021/07/19 04:59:27;;;;;;;2.67;1.85;;;23.60;66.90;;;;;;5002473;28;20486;-64
2021/07/19 05:01:55;;;;;;;3.80;2.03;;;23.50;66.90;;;;;;5001790;28;20398;-66
2021/07/19 05:04:25;;;;;;;2.70;2.08;;;23.50;66.90;;;;;;5002498;28;20443;-64
2021/07/19 05:06:52;;;;;;;4.15;2.00;;;23.50;66.90;;;;;;4999927;28;20389;-65
2021/07/19 05:09:19;;;;;;;3.67;2.20;;;23.50;67.00;;;;;;5000864;28;20404;-64
2021/07/19 05:11:47;;;;;;;5.28;2.33;;;23.50;67.00;;;;;;4999364;28;20420;-66
2021/07/19 05:14:13;;;;;;;4.72;2.00;;;23.50;67.00;;;;;;5003799;28;20879;-64
2021/07/19 05:16:40;;;;;;;3.85;2.25;;;23.50;67.10;;;;;;5004946;28;20388;-63
2021/07/19 05:19:06;;;;;;;6.00;2.30;;;23.50;67.10;;;;;;5005382;28;20507;-64
2021/07/19 05:21:33;;;;;;;3.63;2.30;;;23.50;67.20;;;;;;5005352;28;20476;-64
2021/07/19 05:23:59;;;;;;;2.88;1.92;;;23.50;67.10;;;;;;5005569;28;20423;-64
2021/07/19 05:26:25;;;;;;;3.95;2.00;;;23.50;67.10;;;;;;5005985;28;20393;-64
2021/07/19 05:28:50;;;;;;;3.83;1.90;;;23.50;67.10;;;;;;5005807;28;20388;-64
2021/07/19 05:31:16;;;;;;;2.80;1.73;;;23.50;67.20;;;;;;5005520;28;20385;-64
2021/07/19 05:33:42;;;;;;;2.38;1.80;;;23.60;67.20;;;;;;5020427;28;20401;-65
2021/07/19 05:36:11;;;;;;;2.73;2.03;;;23.60;67.20;;;;;;5005460;28;20404;-63
2021/07/19 05:38:36;;;;;;;3.00;2.00;;;23.60;67.20;;;;;;5005217;28;20424;-64
2021/07/19 05:41:02;;;;;;;3.45;2.00;;;23.60;67.20;;;;;;5005539;28;20400;-66
2021/07/19 05:43:28;;;;;;;3.05;2.10;;;23.50;67.10;;;;;;5019898;28;20396;-64
2021/07/19 05:45:54;;;;;;;3.87;2.30;;;23.60;67.10;;;;;;5004614;28;20393;-64
2021/07/19 05:48:19;;;;;;;2.78;2.00;;;23.60;67.70;;;;;;5005250;28;20407;-64
2021/07/19 05:50:45;;;;;;;2.67;1.97;;;23.60;67.10;;;;;;5005103;28;20396;-67
2021/07/19 05:53:11;;;;;;;3.17;2.07;;;23.60;67.10;;;;;;5005173;28;20405;-63
2021/07/19 05:55:37;;;;;;;3.40;2.08;;;23.50;67.00;;;;;;5004630;28;20424;-64
2021/07/19 05:58:03;;;;;;;3.13;2.10;;;23.60;67.10;;;;;;5004873;28;20845;-63
2021/07/19 06:00:30;;;;;;;3.10;2.00;;;23.50;67.10;;;;;;5005320;28;20388;-64
2021/07/19 06:02:56;;;;;;;3.40;2.10;;;23.50;67.10;;;;;;5005662;28;20388;-63
2021/07/19 06:05:21;;;;;;;2.60;2.05;;;23.50;67.00;;;;;;5004925;28;20392;-63
2021/07/19 06:07:47;;;;;;;2.60;2.00;;;23.60;67.10;;;;;;5005359;28;20411;-64
2021/07/19 06:10:14;;;;;;;2.55;2.10;;;23.50;67.00;;;;;;5004953;28;20389;-62
2021/07/19 06:12:40;;;;;;;2.38;1.90;;;23.50;67.00;;;;;;5004970;28;20888;-63
2021/07/19 06:15:09;;;;;;;3.65;2.00;;;23.60;67.00;;;;;;5005062;28;20389;-63
2021/07/19 06:17:37;;;;;;;2.55;2.00;;;23.60;67.00;;;;;;5019938;28;20961;-63
2021/07/19 06:20:10;;;;;;;2.88;2.08;;;23.60;67.00;;;;;;5003385;28;20405;-63
2021/07/19 06:22:36;;;;;;;2.88;2.13;;;23.60;67.00;;;;;;5005139;28;20878;-62
2021/07/19 06:25:04;;;;;;;3.90;2.20;;;23.60;67.00;;;;;;5003795;28;20393;-63
2021/07/19 06:27:30;;;;;;;2.50;2.00;;;23.60;67.00;;;;;;5004384;28;20385;-63
2021/07/19 06:29:55;;;;;;;2.50;2.00;;;23.60;67.00;;;;;;5004359;28;20428;-62
2021/07/19 06:32:21;;;;;;;2.47;2.10;;;23.60;66.90;;;;;;5004826;28;20431;-62
2021/07/19 06:34:46;;;;;;;2.60;2.15;;;23.60;67.00;;;;;;5004741;28;20869;-63
2021/07/19 06:37:12;;;;;;;3.90;2.20;;;23.60;67.00;;;;;;5004548;28;20750;-62
2021/07/19 06:39:38;;;;;;;2.78;2.20;;;23.60;66.90;;;;;;5003864;28;20424;-63
2021/07/19 06:42:03;;;;;;;2.63;2.00;;;23.60;66.90;;;;;;5004059;28;20434;-64
2021/07/19 06:44:29;;;;;;;3.83;2.05;;;23.60;66.90;;;;;;5004220;28;20413;-62
2021/07/19 06:46:57;;;;;;;3.03;2.20;;;23.60;66.90;;;;;;5004331;28;20393;-64
2021/07/19 06:49:26;;;;;;;3.20;2.33;;;23.60;66.90;;;;;;5004539;28;20528;-62
2021/07/19 06:51:53;;;;;;;4.78;2.10;;;23.60;66.90;;;;;;5003783;28;20424;-62
2021/07/19 06:54:18;;;;;;;3.47;2.30;;;23.60;66.80;;;;;;5004179;28;20384;-62
2021/07/19 06:56:45;;;;;;;4.95;2.15;;;23.60;66.80;;;;;;5004011;28;20385;-64
2021/07/19 06:59:12;;;;;;;3.67;2.17;;;23.60;67.40;;;;;;5003572;28;20424;-62
2021/07/19 07:01:39;;;;;;;4.50;2.30;;;23.60;66.80;;;;;;5003687;28;20479;-62
2021/07/19 07:04:06;;;;;;;4.07;2.50;;;23.60;66.80;;;;;;5003556;28;20400;-62
2021/07/19 07:06:32;;;;;;;3.58;2.38;;;23.60;66.80;;;;;;5018909;28;20396;-62
2021/07/19 07:08:59;;;;;;;3.42;2.50;;;23.60;66.80;;;;;;5018910;28;20405;-62
2021/07/19 07:11:28;;;;;;;2.95;2.40;;;23.60;66.80;;;;;;5003382;28;20800;-62
2021/07/19 07:13:55;;;;;;;3.67;2.30;;;23.60;66.80;;;;;;5003346;28;20454;-63
2021/07/19 07:16:21;;;;;;;3.58;2.10;;;23.60;66.80;;;;;;5003692;28;20439;-61
2021/07/19 07:18:47;;;;;;;3.50;2.40;;;23.70;66.90;;;;;;5003642;28;20425;-63
2021/07/19 07:21:13;;;;;;;2.73;2.03;;;23.60;66.80;;;;;;5004205;28;20433;-65
2021/07/19 07:23:38;;;;;;;3.47;2.10;;;23.70;66.80;;;;;;5003150;28;20429;-62
2021/07/19 07:26:05;;;;;;;3.10;2.10;;;23.60;66.70;;;;;;5003369;28;20404;-62
2021/07/19 07:28:30;;;;;;;3.75;2.40;;;23.60;66.80;;;;;;5003557;28;20404;-62
2021/07/19 07:30:56;;;;;;;2.80;2.30;;;23.70;66.80;;;;;;5003234;28;20388;-64
2021/07/19 07:33:21;;;;;;;3.53;2.20;;;23.60;66.80;;;;;;5003530;28;20388;-61
2021/07/19 07:35:47;;;;;;;4.33;2.27;;;23.70;67.40;;;;;;5017493;28;20393;-64
2021/07/19 07:38:13;;;;;;;3.63;2.42;;;23.70;66.80;;;;;;5003390;28;20424;-63
2021/07/19 07:40:39;;;;;;;4.15;2.28;;;23.60;66.70;;;;;;5003012;28;20404;-62
2021/07/19 07:43:05;;;;;;;3.50;2.47;;;23.70;66.80;;;;;;5003423;28;20512;-65
2021/07/19 07:45:31;;;;;;;3.60;2.27;;;23.70;66.80;;;;;;5003233;28;21158;-65
2021/07/19 07:47:56;;;;;;;4.57;2.42;;;23.70;66.80;;;;;;5002605;28;20877;-62
2021/07/19 07:50:22;;;;;;;3.70;2.50;;;23.70;66.80;;;;;;5002155;28;20395;-62
2021/07/19 07:52:48;;;;;;;3.60;2.50;;;23.70;66.80;;;;;;5003198;28;20734;-64
2021/07/19 07:55:13;;;;;;;4.00;2.35;;;23.70;66.70;;;;;;5003435;28;20454;-63
2021/07/19 07:57:40;;;;;;;3.05;2.45;;;23.70;66.80;;;;;;5002975;28;20384;-62
2021/07/19 08:00:12;;;;;;;4.63;2.80;;;23.70;66.80;;;;;;5003556;28;20434;-62
2021/07/19 08:02:38;;;;;;;5.30;3.10;;;23.60;66.80;;;;;;5003526;28;20448;-62
2021/07/19 08:05:05;;;;;;;4.60;2.70;;;23.70;66.80;;;;;;5003236;28;20400;-62
2021/07/19 08:07:30;;;;;;;4.07;3.03;;;23.70;66.80;;;;;;5003064;28;20400;-62
2021/07/19 08:09:56;;;;;;;5.23;3.00;;;23.70;66.70;;;;;;5002778;28;20393;-62
2021/07/19 08:12:22;;;;;;;4.57;3.10;;;23.70;66.80;;;;;;5002824;28;20442;-62
2021/07/19 08:14:47;;;;;;;6.13;3.07;;;23.70;66.80;;;;;;5002791;28;20432;-62
2021/07/19 08:17:13;;;;;;;5.28;3.00;;;23.70;66.80;;;;;;5002537;28;20534;-62
2021/07/19 08:19:39;;;;;;;5.03;2.70;;;23.70;66.70;;;;;;5002641;28;20519;-65
2021/07/19 08:22:11;;;;;;;3.67;2.80;;;23.70;66.70;;;;;;5002186;28;20389;-62
2021/07/19 08:24:37;;;;;;;4.53;2.70;;;23.70;66.70;;;;;;5002770;28;20408;-61
2021/07/19 08:27:03;;;;;;;5.20;3.00;;;23.70;66.60;;;;;;5002542;28;20392;-62
2021/07/19 08:29:29;;;;;;;4.40;2.72;;;23.70;66.60;;;;;;5002662;28;20484;-63
2021/07/19 08:31:55;;;;;;;4.00;3.08;;;23.70;66.60;;;;;;5002516;28;20443;-62
2021/07/19 08:34:21;;;;;;;3.65;2.90;;;23.70;66.60;;;;;;5002901;28;20396;-62
2021/07/19 08:36:47;;;;;;;3.55;2.58;;;23.70;66.60;;;;;;5002610;28;20418;-63
2021/07/19 08:39:13;;;;;;;4.15;2.80;;;23.70;66.50;;;;;;5002148;28;20427;-62
2021/07/19 08:41:39;;;;;;;4.63;3.23;;;23.70;66.60;;;;;;5002835;28;20400;-62
2021/07/19 08:44:07;;;;;;;3.17;2.40;;;23.70;66.60;;;;;;5002025;28;20451;-64
2021/07/19 08:46:35;;;;;;;6.35;2.92;;;23.70;66.60;;;;;;5002557;28;20391;-63
2021/07/19 08:49:01;;;;;;;7.88;3.00;;;23.70;66.50;;;;;;5004955;28;20402;-61
2021/07/19 08:51:29;;;;;;;5.78;3.08;;;23.70;66.50;;;;;;5006151;28;20425;-63
2021/07/19 08:53:56;;;;;;;5.88;2.83;;;23.70;66.50;;;;;;5005800;28;20396;-62
2021/07/19 08:56:23;;;;;;;5.18;2.80;;;23.70;66.50;;;;;;5006186;28;20447;-62
2021/07/19 08:58:49;;;;;;;5.03;2.90;;;23.70;66.50;;;;;;5006240;28;20927;-62
2021/07/19 09:01:15;;;;;;;7.00;3.00;;;23.70;66.40;;;;;;5021298;28;20400;-63
2021/07/19 09:03:41;;;;;;;6.90;3.03;;;23.70;66.40;;;;;;5021385;28;20479;-63
2021/07/19 09:06:11;;;;;;;4.77;3.10;;;23.70;66.40;;;;;;5005528;28;20419;-62
2021/07/19 09:08:51;;;;;;;7.32;3.22;;;23.70;66.50;;;;;;5006077;28;20392;-62
2021/07/19 09:11:18;;;;;;;7.70;3.20;;;23.70;66.50;;;;;;5005898;28;20397;-63
2021/07/19 09:14:02;;;;;;;5.70;2.72;;;23.70;66.50;;;;;;5005619;28;20483;-64
2021/07/19 09:16:42;;;;;;;5.15;3.00;;;23.70;66.50;;;;;;5006145;28;20392;-62
2021/07/19 09:19:10;;;;;;;8.40;3.20;;;23.70;66.50;;;;;;5006430;28;20424;-62
2021/07/19 09:21:38;;;;;;;5.80;3.20;;;23.70;66.50;;;;;;5005711;28;20475;-62
2021/07/19 09:24:09;;;;;;;5.97;3.22;;;23.70;66.40;;;;;;5005372;28;21027;-63
2021/07/19 09:26:36;;;;;;;6.30;3.35;;;23.70;66.50;;;;;;5006036;28;20385;-66
2021/07/19 09:29:04;;;;;;;5.88;3.40;;;23.70;66.50;;;;;;5005802;28;20414;-64
2021/07/19 09:31:39;;;;;;;5.45;3.50;;;23.70;66.40;;;;;;5005439;28;20395;-62
2021/07/19 09:34:16;;;;;;;8.02;3.60;;;23.80;66.50;;;;;;5005466;28;20479;-63
2021/07/19 09:36:58;;;;;;;7.43;3.20;;;23.70;66.40;;;;;;5005532;28;20394;-62
2021/07/19 09:39:24;;;;;;;6.85;3.20;;;23.70;66.40;;;;;;5005386;28;20417;-64
2021/07/19 09:41:50;;;;;;;9.52;3.40;;;23.80;66.50;;;;;;5005252;28;20397;-62
2021/07/19 09:44:16;;;;;;;6.07;3.47;;;23.80;66.40;;;;;;5005132;28;20888;-62
2021/07/19 09:46:42;;;;;;;9.07;3.05;;;23.80;66.50;;;;;;5005226;28;20873;-62
2021/07/19 09:49:08;;;;;;;6.55;3.45;;;23.80;66.50;;;;;;5005544;28;20412;-62
2021/07/19 09:51:35;;;;;;;10.27;3.60;;;23.70;66.40;;;;;;5005057;28;21052;-62
2021/07/19 09:54:14;;;;;;;6.90;3.63;;;23.80;66.40;;;;;;5004927;28;20389;-62
2021/07/19 09:56:40;;;;;;;7.53;3.35;;;23.80;66.40;;;;;;5005365;28;20401;-63
2021/07/19 09:59:15;;;;;;;4.60;3.60;;;23.80;66.40;;;;;;5004961;28;20417;-62
2021/07/19 10:01:44;;;;;;;7.97;3.80;;;23.80;66.40;;;;;;5005603;28;20593;-62
2021/07/19 10:04:14;;;;;;;6.15;3.70;;;23.80;66.40;;;;;;5019392;28;20405;-62
2021/07/19 10:06:41;;;;;;;5.60;3.60;;;23.80;66.50;;;;;;5003714;28;20403;-61
2021/07/19 10:09:11;;;;;;;5.93;3.40;;;23.70;66.50;;;;;;5005149;28;20400;-62
2021/07/19 10:11:40;;;;;;;6.55;3.50;;;23.70;66.50;;;;;;5005165;28;20447;-62
2021/07/19 10:14:06;;;;;;;7.38;3.60;;;23.70;66.50;;;;;;5004169;28;20836;-62
2021/07/19 10:16:34;;;;;;;5.53;3.45;;;23.80;66.60;;;;;;5004836;28;20732;-62
2021/07/19 10:19:02;;;;;;;6.50;3.78;;;23.80;66.60;;;;;;5020149;28;20424;-63
2021/07/19 10:21:29;;;;;;;5.60;3.60;;;23.70;66.60;;;;;;5004749;28;20487;-62
2021/07/19 10:24:01;;;;;;;5.95;3.53;;;23.80;66.60;;;;;;5004232;28;20483;-64
2021/07/19 10:26:28;;;;;;;7.30;4.00;;;23.80;66.50;;;;;;5003279;28;20896;-63
2021/07/19 10:28:54;;;;;;;13.30;3.78;;;23.80;66.50;;;;;;5004369;28;20935;-62
2021/07/19 10:31:20;;;;;;;12.25;3.97;;;23.80;66.90;;;;;;5004181;28;20389;-62
2021/07/19 10:33:48;;;;;;;7.03;4.13;;;23.80;66.70;;;;;;5004067;28;20393;-64
2021/07/19 10:36:40;;;;;;;8.88;3.92;;;23.70;66.60;;;;;;5004156;28;20455;-63
2021/07/19 10:39:13;;;;;;;7.55;3.88;;;23.80;66.60;;;;;;5004087;28;20420;-63
2021/07/19 10:41:39;;;;;;;5.70;3.70;;;23.80;66.60;;;;;;5004529;28;20389;-62
2021/07/19 10:44:08;;;;;;;9.52;4.10;;;23.80;66.60;;;;;;5003700;28;20437;-62
2021/07/19 10:46:35;;;;;;;6.50;4.15;;;23.80;66.60;;;;;;5003812;28;20695;-62
2021/07/19 10:49:12;;;;;;;10.20;4.22;;;23.80;66.60;;;;;;5004145;28;20393;-62
2021/07/19 10:51:47;;;;;;;8.15;3.92;;;23.80;66.70;;;;;;5004119;28;20821;-62
2021/07/19 10:54:23;;;;;;;6.55;3.60;;;23.80;66.70;;;;;;5003690;28;20381;-63
2021/07/19 10:56:54;;;;;;;9.10;3.55;;;23.80;66.70;;;;;;5004123;28;20734;-63
2021/07/19 10:59:30;;;;;;;7.32;3.45;;;23.80;66.60;;;;;;5003734;28;20448;-63
2021/07/19 11:01:58;;;;;;;12.15;4.20;;;23.80;66.70;;;;;;5003844;28;20385;-63
2021/07/19 11:04:25;;;;;;;7.53;3.67;;;23.80;66.70;;;;;;5004151;28;20527;-62
2021/07/19 11:06:59;;;;;;;7.70;3.97;;;23.80;66.70;;;;;;5003902;28;20450;-62
2021/07/19 11:09:39;;;;;;;6.97;3.92;;;23.80;66.70;;;;;;5003454;28;20397;-63
2021/07/19 11:12:12;;;;;;;9.43;4.13;;;23.80;66.70;;;;;;5001657;28;20404;-63
2021/07/19 11:14:43;;;;;;;5.35;3.70;;;23.80;66.70;;;;;;5004163;28;20393;-63
2021/07/19 11:17:10;;;;;;;8.02;3.78;;;23.80;66.60;;;;;;5003610;28;20397;-64
2021/07/19 11:19:36;;;;;;;7.22;3.53;;;23.80;66.60;;;;;;5003798;28;20420;-62
2021/07/19 11:22:23;;;;;;;13.52;3.80;;;23.80;66.60;;;;;;5002741;28;20381;-63
2021/07/19 11:25:11;;;;;;;15.13;4.10;;;23.80;66.60;;;;;;5003459;28;20641;-64
2021/07/19 11:27:41;;;;;;;8.57;3.90;;;23.80;66.60;;;;;;5017740;28;20416;-62
2021/07/19 11:30:25;;;;;;;11.63;3.83;;;23.80;66.50;;;;;;5002610;28;20400;-62
2021/07/19 11:32:51;;;;;;;11.13;4.10;;;23.90;66.50;;;;;;5003210;28;20436;-63
2021/07/19 11:35:23;;;;;;;7.18;4.20;;;23.90;66.50;;;;;;5003307;28;20869;-62
2021/07/19 11:37:59;;;;;;;8.45;3.65;;;23.90;66.40;;;;;;5003301;28;20399;-64
2021/07/19 11:40:36;;;;;;;8.60;4.10;;;23.90;66.40;;;;;;5003573;28;21506;-63
2021/07/19 11:43:15;;;;;;;7.35;4.10;;;23.90;66.40;;;;;;5003856;28;20893;-62
2021/07/19 11:45:43;;;;;;;7.65;3.90;;;23.90;66.30;;;;;;5003824;28;20426;-62
2021/07/19 11:48:10;;;;;;;5.90;3.80;;;23.90;66.30;;;;;;5003305;28;20393;-62
2021/07/19 11:50:36;;;;;;;6.55;3.90;;;23.90;66.20;;;;;;5003029;28;20388;-63
2021/07/19 11:53:02;;;;;;;7.28;3.42;;;23.90;66.20;;;;;;5000844;28;20397;-63
2021/07/19 11:55:29;;;;;;;6.13;3.60;;;23.90;66.20;;;;;;4999464;28;20389;-64
2021/07/19 11:58:01;;;;;;;7.95;3.70;;;23.90;66.40;;;;;;5001470;28;20466;-63
2021/07/19 12:00:34;;;;;;;6.68;3.90;;;23.90;66.30;;;;;;5001545;28;21143;-62
2021/07/19 12:03:13;;;;;;;6.47;3.60;;;23.90;66.20;;;;;;5002916;28;20377;-62
2021/07/19 12:05:59;;;;;;;5.60;3.70;;;23.90;66.10;;;;;;5002946;28;20397;-62
2021/07/19 12:08:33;;;;;;;5.45;3.38;;;23.90;66.10;;;;;;5002641;28;20448;-63
2021/07/19 12:11:08;;;;;;;7.80;3.80;;;23.90;66.00;;;;;;5002109;28;20400;-63
2021/07/19 12:13:37;;;;;;;4.85;3.45;;;23.90;66.00;;;;;;5002828;28;20674;-63
2021/07/19 12:16:03;;;;;;;4.70;3.45;;;23.90;66.00;;;;;;5002600;28;20403;-62
2021/07/19 12:18:31;;;;;;;5.30;3.57;;;24.00;66.00;;;;;;5001149;28;20421;-62
2021/07/19 12:21:01;;;;;;;5.15;3.42;;;24.00;65.90;;;;;;5018082;28;20731;-62
2021/07/19 12:23:45;;;;;;;4.50;3.63;;;24.00;65.90;;;;;;5005660;28;20388;-65
2021/07/19 12:26:14;;;;;;;7.70;3.65;;;24.00;65.80;;;;;;5005118;28;20732;-62
2021/07/19 12:28:54;;;;;;;6.10;3.70;;;24.00;66.20;;;;;;5006234;28;20398;-62
2021/07/19 12:31:27;;;;;;;5.82;3.63;;;24.10;66.20;;;;;;5006343;28;20881;-63
2021/07/19 12:33:53;;;;;;;7.20;3.90;;;24.10;66.30;;;;;;5006147;28;20747;-66
2021/07/19 12:36:20;;;;;;;8.32;3.97;;;24.10;66.40;;;;;;5006111;28;20738;-62
2021/07/19 12:38:48;;;;;;;6.93;3.50;;;24.10;66.20;;;;;;5005803;28;20427;-64
2021/07/19 12:41:16;;;;;;;6.85;4.10;;;24.10;66.30;;;;;;5004515;28;20405;-63
2021/07/19 12:43:43;;;;;;;8.10;3.95;;;24.10;66.10;;;;;;5004663;28;20412;-65
2021/07/19 12:46:12;;;;;;;8.97;3.90;;;24.10;66.00;;;;;;5004418;28;20381;-63
2021/07/19 12:48:45;;;;;;;7.68;3.80;;;24.20;66.00;;;;;;5004858;28;20392;-63
2021/07/19 12:51:12;;;;;;;7.72;3.90;;;24.20;65.90;;;;;;5004715;28;20416;-63